地図

経路データ

SID SEASON NUMBER BASIN SUBBASIN NAME ISO_TIME NATURE LAT LON WMO_WIND WMO_PRES WMO_AGENCY TRACK_TYPE DIST2LAND LANDFALL IFLAG USA_AGENCY USA_ATCF_ID USA_LAT USA_LON USA_RECORD USA_STATUS USA_WIND USA_PRES USA_SSHS USA_R34_NE USA_R34_SE USA_R34_SW USA_R34_NW USA_R50_NE USA_R50_SE USA_R50_SW USA_R50_NW USA_R64_NE USA_R64_SE USA_R64_SW USA_R64_NW USA_POCI USA_ROCI USA_RMW USA_EYE TOKYO_LAT TOKYO_LON TOKYO_GRADE TOKYO_WIND TOKYO_PRES TOKYO_R50_DIR TOKYO_R50_LONG TOKYO_R50_SHORT TOKYO_R30_DIR TOKYO_R30_LONG TOKYO_R30_SHORT TOKYO_LAND CMA_LAT CMA_LON CMA_CAT CMA_WIND CMA_PRES HKO_LAT HKO_LON HKO_CAT HKO_WIND HKO_PRES NEWDELHI_LAT NEWDELHI_LON NEWDELHI_GRADE NEWDELHI_WIND NEWDELHI_PRES NEWDELHI_CI NEWDELHI_DP NEWDELHI_POCI REUNION_LAT REUNION_LON REUNION_TYPE REUNION_WIND REUNION_PRES REUNION_TNUM REUNION_CI REUNION_RMW REUNION_R34_NE REUNION_R34_SE REUNION_R34_SW REUNION_R34_NW REUNION_R50_NE REUNION_R50_SE REUNION_R50_SW REUNION_R50_NW REUNION_R64_NE REUNION_R64_SE REUNION_R64_SW REUNION_R64_NW BOM_LAT BOM_LON BOM_TYPE BOM_WIND BOM_PRES BOM_TNUM BOM_CI BOM_RMW BOM_R34_NE BOM_R34_SE BOM_R34_SW BOM_R34_NW BOM_R50_NE BOM_R50_SE BOM_R50_SW BOM_R50_NW BOM_R64_NE BOM_R64_SE BOM_R64_SW BOM_R64_NW BOM_ROCI BOM_POCI BOM_EYE BOM_POS_METHOD BOM_PRES_METHOD NADI_LAT NADI_LON NADI_CAT NADI_WIND NADI_PRES WELLINGTON_LAT WELLINGTON_LON WELLINGTON_WIND WELLINGTON_PRES DS824_LAT DS824_LON DS824_STAGE DS824_WIND DS824_PRES TD9636_LAT TD9636_LON TD9636_STAGE TD9636_WIND TD9636_PRES TD9635_LAT TD9635_LON TD9635_WIND TD9635_PRES TD9635_ROCI NEUMANN_LAT NEUMANN_LON NEUMANN_CLASS NEUMANN_WIND NEUMANN_PRES MLC_LAT MLC_LON MLC_CLASS MLC_WIND MLC_PRES USA_GUST BOM_GUST BOM_GUST_PER REUNION_GUST REUNION_GUST_PER USA_SEAHGT USA_SEARAD_NE USA_SEARAD_SE USA_SEARAD_SW USA_SEARAD_NW STORM_SPEED STORM_DIR
1945039S09074 1945 12 SI MM NOT_NAMED 1945-02-08 00:00:00 NR -8.90000 74.2000 reunion main 1801 1801 _____O________ -1 -8.90000 74.2000 99 9.90000 2 256
1945039S09074 1945 12 SI MM NOT_NAMED 1945-02-08 03:00:00 NR -8.92979 74.0791 main 1805 1805 _____P________ -1 -8.92979 74.0791 99 3 256
1945039S09074 1945 12 SI MM NOT_NAMED 1945-02-08 06:00:00 NR -8.96149 73.9495 main 1824 1824 _____P________ -1 -8.96149 73.9495 99 3 256
1945039S09074 1945 12 SI MM NOT_NAMED 1945-02-08 09:00:00 NR -8.99707 73.8025 main 1828 1828 _____P________ -1 -8.99707 73.8025 99 3 256
1945039S09074 1945 12 SI MM NOT_NAMED 1945-02-08 12:00:00 NR -9.03846 73.6293 main 1837 1837 _____P________ -1 -9.03846 73.6293 99 4 256
1945039S09074 1945 12 SI MM NOT_NAMED 1945-02-08 15:00:00 NR -9.08757 73.4213 main 1857 1857 _____P________ -1 -9.08757 73.4213 99 5 257
1945039S09074 1945 12 SI MM NOT_NAMED 1945-02-08 18:00:00 NR -9.14631 73.1696 main 1866 1866 _____P________ -1 -9.14631 73.1696 99 6 257
1945039S09074 1945 12 SI MM NOT_NAMED 1945-02-08 21:00:00 NR -9.21651 72.8654 main 1890 1885 _____P________ -1 -9.21651 72.8654 99 4 279
1945039S09074 1945 12 SI MM NOT_NAMED 1945-02-09 00:00:00 TS -9.08571 72.8000 reunion main 1885 1885 O____O___OO___ jtwc_sh SH071945 -8.80000 73.2000 -1 -9.30000 72.5000 99 9.90000 -8.80000 73.2000 TC 25 -8.80000 73.2000 1 6 281
1945039S09074 1945 12 SI MM NOT_NAMED 1945-02-09 03:00:00 TS -9.09862 72.2682 main 1910 1910 P____P___PP___ SH071945 -8.90288 72.3901 -1 -9.39781 72.0677 99 -8.90288 72.3901 TC 25 -8.89169 72.4252 1 12 267
1945039S09074 1945 12 SI MM NOT_NAMED 1945-02-09 06:00:00 TS -9.15315 71.6043 main 1928 1870 O____P___OP___ jtwc_sh SH071945 -9.00000 71.6000 -1 -9.50818 71.5763 99 -9.00000 71.6000 TC 25 -8.98608 71.6501 1 14 265
1945039S09074 1945 12 SI MM NOT_NAMED 1945-02-09 09:00:00 TS -9.22516 70.8991 main 1870 1806 P____P___PP___ SH071945 -9.09230 70.8424 -1 -9.62863 71.0366 99 -9.09230 70.8424 TC 25 -9.08742 70.8750 1 14 262
1945039S09074 1945 12 SI MM NOT_NAMED 1945-02-09 12:00:00 TS -9.33919 70.1899 main 1806 1735 O____P___OO___ jtwc_sh SH071945 -9.20000 70.1000 -1 -9.75677 70.4597 99 -9.20000 70.1000 TC 25 -9.20000 70.1000 1 14 260
1945039S09074 1945 12 SI MM NOT_NAMED 1945-02-09 15:00:00 TS -9.47223 69.4674 main 1735 1673 P____P___PP___ SH071945 -9.33489 69.3424 -1 -9.89022 69.8566 99 -9.33489 69.3424 TC 25 -9.32891 69.3280 1 14 259
1945039S09074 1945 12 SI MM NOT_NAMED 1945-02-09 18:00:00 TS -9.62728 68.7533 main 1673 1604 O____P___OP___ jtwc_sh SH071945 -9.50000 68.6000 -1 -10.0267 69.2383 99 -9.50000 68.6000 TC 25 -9.48240 68.5748 1 14 257
1945039S09074 1945 12 SI MM NOT_NAMED 1945-02-09 21:00:00 TS -9.79713 68.0537 main 1604 1536 P____P___PP___ SH071945 -9.67744 67.8699 -1 -10.1640 68.6157 99 -9.67744 67.8699 TC 25 -9.66965 67.8591 1 14 254
1945039S09074 1945 12 SI MM NOT_NAMED 1945-02-10 00:00:00 TS -10.0000 67.4000 reunion main 1536 1483 O____O___OO___ jtwc_sh SH071945 -9.90000 67.2000 -1 -10.3000 68.0000 99 9.90000 -9.90000 67.2000 TC 25 -9.90000 67.2000 1 13 250
1945039S09074 1945 12 SI MM NOT_NAMED 1945-02-10 03:00:00 TS -10.2372 66.8318 main 1476 1415 P____P___PP___ SH071945 -10.1773 66.6199 -1 -10.4010 67.4496 99 -10.1773 66.6199 TC 25 -10.1930 66.6377 1 12 245
1945039S09074 1945 12 SI MM NOT_NAMED 1945-02-10 06:00:00 TS -10.5064 66.3070 main 1415 1354 O____P___OP___ jtwc_sh SH071945 -10.5000 66.1000 -1 -10.4994 66.9009 99 -10.5000 66.1000 TC 25 -10.5261 66.1273 1 12 241
1945039S09074 1945 12 SI MM NOT_NAMED 1945-02-10 09:00:00 TS -10.7927 65.8023 main 1354 1294 P____P___PP___ SH071945 -10.8498 65.6149 -1 -10.5999 66.3513 99 -10.8498 65.6149 TC 25 -10.8712 65.6282 1 12 241
1945039S09074 1945 12 SI MM NOT_NAMED 1945-02-10 12:00:00 TS -11.0768 65.2746 main 1294 1237 O____P___OO___ jtwc_sh SH071945 -11.2000 65.1000 -1 -10.7073 65.7984 99 -11.2000 65.1000 TC 25 -11.2000 65.1000 1 12 244
1945039S09074 1945 12 SI MM NOT_NAMED 1945-02-10 15:00:00 TS -11.3407 64.6696 main 1237 1171 P____P___PP___ SH071945 -11.5225 64.4725 -1 -10.8263 65.2395 99 -11.5225 64.4725 TC 25 -11.4917 64.4940 1 13 248
1945039S09074 1945 12 SI MM NOT_NAMED 1945-02-10 18:00:00 TS -11.5803 64.0311 main 1165 1110 O____P___OP___ jtwc_sh SH071945 -11.8000 63.8000 -1 -10.9616 64.6720 99 -11.8000 63.8000 TC 25 -11.7597 63.8524 1 13 250
1945039S09074 1945 12 SI MM NOT_NAMED 1945-02-10 21:00:00 TS -11.7901 63.3981 main 1110 1057 P____P___PP___ SH071945 -12.0223 63.1573 -1 -11.1180 64.0931 99 -12.0223 63.1573 TC 25 -11.9978 63.1846 1 13 253
1945039S09074 1945 12 SI MM NOT_NAMED 1945-02-11 00:00:00 TS -11.9750 62.7500 reunion main 1057 1011 O____O___OO___ jtwc_sh SH071945 -12.2000 62.5000 -1 -11.3000 63.5000 99 9.90000 -12.2000 62.5000 TC 25 -12.2000 62.5000 1 14 255
1945039S09074 1945 12 SI MM NOT_NAMED 1945-02-11 03:00:00 TS -12.1481 62.0640 main 1011 958 P____P___PP___ SH071945 -12.3649 61.8074 -1 -11.5091 62.8879 99 -12.3649 61.8074 TC 25 -12.3534 61.7531 1 14 256
1945039S09074 1945 12 SI MM NOT_NAMED 1945-02-11 06:00:00 TS -12.3040 61.3659 main 958 919 O____P___OP___ jtwc_sh SH071945 -12.5000 61.1000 -1 -11.7425 62.2615 99 -12.5000 61.1000 TC 25 -12.4734 61.0021 1 14 258
1945039S09074 1945 12 SI MM NOT_NAMED 1945-02-11 09:00:00 TS -12.4486 60.6544 main 919 874 P____P___PP___ SH071945 -12.6077 60.3475 -1 -11.9974 61.6226 99 -12.6077 60.3475 TC 25 -12.5816 60.3000 1 13 258
1945039S09074 1945 12 SI MM NOT_NAMED 1945-02-11 12:00:00 TS -12.5928 60.0182 main 874 852 O____P___OO___ jtwc_sh SH071945 -12.7000 59.7000 -1 -12.2711 60.9728 99 -12.7000 59.7000 TC 25 -12.7000 59.7000 1 11 255
1945039S09074 1945 12 SI MM NOT_NAMED 1945-02-11 15:00:00 TS -12.7365 59.5512 main 852 821 P____P___PP___ SH071945 -12.7772 59.2899 -1 -12.5609 60.3140 99 -12.7772 59.2899 TC 25 -12.8306 59.3110 1 9 249
1945039S09074 1945 12 SI MM NOT_NAMED 1945-02-11 18:00:00 TS -12.9111 59.1666 main 821 792 O____P___OP___ jtwc_sh SH071945 -12.9000 59.0000 -1 -12.8640 59.6478 99 -12.9000 59.0000 TC 25 -12.9804 59.0185 1 8 241
1945039S09074 1945 12 SI MM NOT_NAMED 1945-02-11 21:00:00 TS -13.1419 58.7943 main 792 753 P____P___PP___ SH071945 -13.1123 58.7298 -1 -13.1779 58.9759 99 -13.1123 58.7298 TC 25 -13.1651 58.7419 1 9 236
1945039S09074 1945 12 SI MM NOT_NAMED 1945-02-12 00:00:00 TS -13.4250 58.3750 reunion main 753 716 O____O___OO___ jtwc_sh SH071945 -13.4000 58.4000 -1 -13.5000 58.3000 99 9.90000 -13.4000 58.4000 TC 25 -13.4000 58.4000 1 11 237
1945039S09074 1945 12 SI MM NOT_NAMED 1945-02-12 03:00:00 TS -13.7539 57.8196 main 705 671 P____P___PP___ SH071945 -13.7350 57.9025 -1 -13.8459 57.5700 99 -13.7350 57.9025 TC 25 -13.6996 57.9034 1 13 239
1945039S09074 1945 12 SI MM NOT_NAMED 1945-02-12 06:00:00 TS -14.1134 57.1883 main 672 633 O____P___OP___ jtwc_sh SH071945 -14.1000 57.3000 -1 -14.2063 56.8260 99 -14.1000 57.3000 TC 25 -14.0472 57.3273 1 14 240
1945039S09074 1945 12 SI MM NOT_NAMED 1945-02-12 09:00:00 TS -14.4734 56.5357 main 635 581 P____P___PP___ SH071945 -14.4497 56.6872 -1 -14.5727 56.0809 99 -14.4497 56.6872 TC 25 -14.4212 56.6875 1 15 241
1945039S09074 1945 12 SI MM NOT_NAMED 1945-02-12 12:00:00 TS -14.8341 55.8369 main 571 493 O____P___OO___ jtwc_sh SH071945 -14.8000 56.0000 -1 -14.9365 55.3476 99 -14.8000 56.0000 TC 25 -14.8000 56.0000 1 16 243
1945039S09074 1945 12 SI MM NOT_NAMED 1945-02-12 15:00:00 TS -15.1944 55.0679 main 493 407 P____P___PP___ SH071945 -15.1501 55.2074 -1 -15.2893 54.6393 99 -15.1501 55.2074 TC 25 -15.1879 55.2173 1 17 244
1945039S09074 1945 12 SI MM NOT_NAMED 1945-02-12 18:00:00 TS -15.5481 54.2935 main 407 336 O____P___OP___ jtwc_sh SH071945 -15.5000 54.4000 -1 -15.6229 53.9694 99 -15.5000 54.4000 TC 25 -15.5696 54.4045 1 16 244
1945039S09074 1945 12 SI MM NOT_NAMED 1945-02-12 21:00:00 TS -15.8976 53.5603 main 336 282 P____P___PP___ SH071945 -15.8726 53.6252 -1 -15.9291 53.3517 99 -15.8726 53.6252 TC 25 -15.9162 53.6392 1 15 243
1945039S09074 1945 12 SI MM NOT_NAMED 1945-02-13 00:00:00 TS -16.2000 52.9500 reunion main 282 250 O____O___OO___ jtwc_sh SH071945 -16.2000 53.0000 -1 -16.2000 52.8000 99 9.90000 -16.2000 53.0000 TC 25 -16.2000 53.0000 1 11 242
1945039S09074 1945 12 SI MM NOT_NAMED 1945-02-13 03:00:00 TS -16.4218 52.5547 main 250 226 P____P___PP___ SH071945 -16.4446 52.6322 -1 -16.4142 52.3553 99 -16.4446 52.6322 TC 25 -16.3838 52.5991 1 7 240
1945039S09074 1945 12 SI MM NOT_NAMED 1945-02-13 06:00:00 TS -16.5761 52.2763 main 231 207 O____P___OP___ jtwc_sh SH071945 -16.6000 52.4000 -1 -16.5964 51.9771 99 -16.6000 52.4000 TC 25 -16.5078 52.3281 1 6 244
1945039S09074 1945 12 SI MM NOT_NAMED 1945-02-13 09:00:00 TS -16.6674 52.0214 main 207 187 P____P___PP___ SH071945 -16.6574 52.1573 -1 -16.7518 51.6529 99 -16.6574 52.1573 TC 25 -16.6030 52.1182 1 5 251
1945039S09074 1945 12 SI MM NOT_NAMED 1945-02-13 12:00:00 TS -16.7464 51.7675 main 187 165 O____P___OO___ jtwc_sh SH071945 -16.7000 51.9000 -1 -16.8855 51.3701 99 -16.7000 51.9000 TC 25 -16.7000 51.9000 1 6 249
1945039S09074 1945 12 SI MM NOT_NAMED 1945-02-13 15:00:00 TS -16.8819 51.4515 main 171 140 P____P___PP___ SH071945 -16.8350 51.5650 -1 -17.0023 51.1162 99 -16.8350 51.5650 TC 25 -16.8551 51.5596 1 7 245
1945039S09074 1945 12 SI MM NOT_NAMED 1945-02-13 18:00:00 TS -17.0306 51.1197 main 140 115 O____P___OP___ jtwc_sh SH071945 -17.0000 51.2000 -1 -17.1072 50.8783 99 -17.0000 51.2000 TC 25 -17.0152 51.2003 1 7 245
1945039S09074 1945 12 SI MM NOT_NAMED 1945-02-13 21:00:00 TS -17.1756 50.7924 main 115 93 P____P___PP___ SH071945 -17.1650 50.8425 -1 -17.2048 50.6439 99 -17.1650 50.8425 TC 25 -17.1676 50.8408 1 7 246
1945039S09074 1945 12 SI MM NOT_NAMED 1945-02-14 00:00:00 TS -17.3000 50.4750 reunion main 93 77 O____O___OO___ jtwc_sh SH071945 -17.3000 50.5000 -1 -17.3000 50.4000 99 9.90000 -17.3000 50.5000 TC 25 -17.3000 50.5000 1 6 252
1945039S09074 1945 12 SI MM NOT_NAMED 1945-02-14 03:00:00 TS -17.3734 50.1695 main 79 53 P____P___PP___ SH071945 -17.3574 50.1849 -1 -17.3907 50.0930 99 -17.3574 50.1849 TC 25 -17.3880 50.2152 1 6 257
1945039S09074 1945 12 SI MM NOT_NAMED 1945-02-14 06:00:00 TS -17.4323 49.8834 main 53 21 O____P___OP___ jtwc_sh SH071945 -17.4000 49.9000 -1 -17.4723 49.7842 99 -17.4000 49.9000 TC 25 -17.4569 49.9494 1 5 255
1945039S09074 1945 12 SI MM NOT_NAMED 1945-02-14 09:00:00 TS -17.5145 49.6182 main 21 0 P____P___PP___ SH071945 -17.4924 49.6575 -1 -17.5507 49.4738 99 -17.4924 49.6575 TC 25 -17.5224 49.6839 1 5 251
1945039S09074 1945 12 SI MM NOT_NAMED 1945-02-14 12:00:00 TS -17.6079 49.3405 main 0 0 O____P___OO___ jtwc_sh SH071945 -17.6000 49.4000 -1 -17.6318 49.1619 99 -17.6000 49.4000 TC 25 -17.6000 49.4000 1 6 252
1945039S09074 1945 12 SI MM NOT_NAMED 1945-02-14 15:00:00 TS -17.7042 49.0186 main 0 0 P____P___PP___ SH071945 -17.6925 49.0649 -1 -17.7214 48.8486 99 -17.6925 49.0649 TC 25 -17.7103 49.0958 1 7 252
1945039S09074 1945 12 SI MM NOT_NAMED 1945-02-14 18:00:00 TS -17.8149 48.6753 main 0 0 O____P___OP___ jtwc_sh SH071945 -17.8000 48.7000 -1 -17.8254 48.5338 99 -17.8000 48.7000 TC 25 -17.8344 48.7673 1 7 249
1945039S09074 1945 12 SI MM NOT_NAMED 1945-02-14 21:00:00 TS -17.9539 48.3419 main 0 0 P____P___PP___ SH071945 -17.9498 48.3725 -1 -17.9496 48.2177 99 -17.9498 48.3725 TC 25 -17.9664 48.4051 1 7 247
1945039S09074 1945 12 SI MM NOT_NAMED 1945-02-15 00:00:00 TS -18.1000 47.9750 reunion main 0 0 O____O___OO___ jtwc_sh SH071945 -18.1000 48.0000 -1 -18.1000 47.9000 99 9.90000 -18.1000 48.0000 TC 25 -18.1000 48.0000 1 8 252
1945039S09074 1945 12 SI MM NOT_NAMED 1945-02-15 03:00:00 TS -18.2120 47.5086 main 0 0 P____P___PP___ SH071945 -18.2000 47.5224 -1 -18.2588 47.4996 99 -18.2000 47.5224 TC 25 -18.1893 47.4901 1 9 256
1945039S09074 1945 12 SI MM NOT_NAMED 1945-02-15 06:00:00 TS -18.3305 47.0086 main 0 0 O____P___OP___ jtwc_sh SH071945 -18.3000 47.0000 -1 -18.4384 47.0870 99 -18.3000 47.0000 TC 25 -18.2838 46.9472 1 10 254
1945039S09074 1945 12 SI MM NOT_NAMED 1945-02-15 09:00:00 TS -18.4769 46.5087 main 0 0 P____P___PP___ SH071945 -18.4276 46.4625 -1 -18.6412 46.6791 99 -18.4276 46.4625 TC 25 -18.4112 46.4307 1 10 249
1945039S09074 1945 12 SI MM NOT_NAMED 1945-02-15 12:00:00 TS -18.6675 46.0732 main 0 0 O____P___OO___ jtwc_sh SH071945 -18.6000 46.0000 -1 -18.8699 46.2927 99 -18.6000 46.0000 TC 25 -18.6000 46.0000 1 8 239
1945039S09074 1945 12 SI MM NOT_NAMED 1945-02-15 15:00:00 TS -18.8993 45.7529 main 0 0 P____P___PP___ SH071945 -18.8048 45.6899 -1 -19.1272 45.9445 99 -18.8048 45.6899 TC 25 -18.8603 45.6873 1 7 224
1945039S09074 1945 12 SI MM NOT_NAMED 1945-02-15 18:00:00 TS -19.2007 45.5306 main 0 0 O____P___OP___ jtwc_sh SH071945 -19.1000 45.5000 -1 -19.4160 45.6516 99 -19.1000 45.5000 TC 25 -19.1867 45.4707 1 8 208
1945039S09074 1945 12 SI MM NOT_NAMED 1945-02-15 21:00:00 TS -19.5835 45.3712 main 0 0 P____P___PP___ SH071945 -19.5125 45.3551 -1 -19.7393 45.4310 99 -19.5125 45.3551 TC 25 -19.5699 45.3437 1 9 195
1945039S09074 1945 12 SI MM NOT_NAMED 1945-02-16 00:00:00 TS -20.0250 45.3000 reunion main 0 0 O____O___OO___ jtwc_sh SH071945 -20.0000 45.3000 -1 -20.1000 45.3000 99 9.90000 -20.0000 45.3000 TC 25 -20.0000 45.3000 1 9 184
1945039S09074 1945 12 SI MM NOT_NAMED 1945-02-16 03:00:00 TS -20.4932 45.3055 main 0 0 P____P___PP___ SH071945 -20.4925 45.3125 -1 -20.5311 45.3087 99 -20.4925 45.3125 TC 25 -20.4566 45.2884 1 10 175
1945039S09074 1945 12 SI MM NOT_NAMED 1945-02-16 06:00:00 TS -20.9904 45.3916 main 0 0 O____P___OP___ jtwc_sh SH071945 -21.0000 45.4000 -1 -21.0068 45.4086 99 -21.0000 45.4000 TC 25 -20.9546 45.3577 1 10 168
1945039S09074 1945 12 SI MM NOT_NAMED 1945-02-16 09:00:00 TS -21.4970 45.5267 main 0 0 P____P___PP___ SH071945 -21.4999 45.5127 -1 -21.5129 45.5834 99 -21.4999 45.5127 TC 25 -21.4754 45.4982 1 11 163
1945039S09074 1945 12 SI MM NOT_NAMED 1945-02-16 12:00:00 TS -22.0088 45.7292 main 0 0 O____P___OO___ jtwc_sh SH071945 -22.0000 45.7000 -1 -22.0351 45.8169 99 -22.0000 45.7000 TC 25 -22.0000 45.7000 1 11 157
1945039S09074 1945 12 SI MM NOT_NAMED 1945-02-16 15:00:00 TS -22.5240 46.0002 main 0 0 P____P___PP___ SH071945 -22.5000 45.9775 -1 -22.5592 46.0924 99 -22.5000 45.9775 TC 25 -22.5369 45.9535 1 12 152
1945039S09074 1945 12 SI MM NOT_NAMED 1945-02-16 18:00:00 TS -23.0347 46.3134 main 0 0 O____P___OP___ jtwc_sh SH071945 -23.0000 46.3000 -1 -23.0707 46.3930 99 -23.0000 46.3000 TC 25 -23.0680 46.2608 1 12 150
1945039S09074 1945 12 SI MM NOT_NAMED 1945-02-16 21:00:00 TS -23.5414 46.6298 main 0 0 P____P___PP___ SH071945 -23.5225 46.6149 -1 -23.5557 46.7014 99 -23.5225 46.6149 TC 25 -23.5650 46.5879 1 11 150
1945039S09074 1945 12 SI MM NOT_NAMED 1945-02-17 00:00:00 TS -24.0000 46.9250 reunion main 0 0 O____O___OO___ jtwc_sh SH071945 -24.0000 46.9000 -1 -24.0000 47.0000 99 9.90000 -24.0000 46.9000 TC 25 -24.0000 46.9000 1 10 150
1945039S09074 1945 12 SI MM NOT_NAMED 1945-02-17 03:00:00 TS -24.3736 47.1489 main 0 0 P____P___PP___ SH071945 -24.3949 47.1078 -1 -24.3692 47.2323 99 -24.3949 47.1078 TC 25 -24.3353 47.1478 1 8 150
1945039S09074 1945 12 SI MM NOT_NAMED 1945-02-17 06:00:00 TS -24.6785 47.3602 main 20 20 O____P___OP___ jtwc_sh SH071945 -24.7000 47.3000 -1 -24.7046 47.4666 99 -24.7000 47.3000 TC 25 -24.6096 47.3741 1 7 143
1945039S09074 1945 12 SI MM NOT_NAMED 1945-02-17 09:00:00 TS -24.9197 47.5969 main 46 46 P____P___PP___ SH071945 -24.9075 47.5502 -1 -25.0095 47.6990 99 -24.9075 47.5502 TC 25 -24.8541 47.5882 1 6 138
1945039S09074 1945 12 SI MM NOT_NAMED 1945-02-17 12:00:00 TS -25.1469 47.8315 main 71 71 O____P___OO___ jtwc_sh SH071945 -25.1000 47.8000 -1 -25.2875 47.9258 99 -25.1000 47.8000 TC 25 -25.1000 47.8000 1 6 141
1945039S09074 1945 12 SI MM NOT_NAMED 1945-02-17 15:00:00 TS -25.4209 48.0402 main 100 100 P____P___PP___ SH071945 -25.3849 48.0001 -1 -25.5420 48.1432 99 -25.3849 48.0001 TC 25 -25.3718 48.0174 1 7 146
1945039S09074 1945 12 SI MM NOT_NAMED 1945-02-17 18:00:00 TS -25.7162 48.2547 main 143 143 O____P___OP___ jtwc_sh SH071945 -25.7000 48.2000 -1 -25.7766 48.3472 99 -25.7000 48.2000 TC 25 -25.6679 48.2409 1 7 145
1945039S09074 1945 12 SI MM NOT_NAMED 1945-02-17 21:00:00 TS -25.9960 48.4823 main 179 179 P____P___PP___ SH071945 -26.0051 48.4372 -1 -25.9948 48.5341 99 -26.0051 48.4372 TC 25 -25.9801 48.4690 1 7 143
1945039S09074 1945 12 SI MM NOT_NAMED 1945-02-18 00:00:00 TS -26.2429 48.7000 reunion main 208 208 O____O___OO___ jtwc_sh SH071945 -26.3000 48.7000 -1 -26.2000 48.7000 99 9.90000 -26.3000 48.7000 TC 25 -26.3000 48.7000 1 5 141
1945039S09074 1945 12 SI MM NOT_NAMED 1945-02-18 03:00:00 NR -26.3954 48.8422 main 231 231 _____P________ SH071945 -1 -26.3954 48.8422 99 TC 1 4 145
1945039S09074 1945 12 SI MM NOT_NAMED 1945-02-18 06:00:00 NR -26.5826 48.9626 main 260 260 _____P________ -1 -26.5826 48.9626 99 1 4 152
1945039S09074 1945 12 SI MM NOT_NAMED 1945-02-18 09:00:00 NR -26.7628 49.0642 main 282 282 _____P________ -1 -26.7628 49.0642 99 1 4 155
1945039S09074 1945 12 SI MM NOT_NAMED 1945-02-18 12:00:00 NR -26.9372 49.1501 main 297 297 _____P________ -1 -26.9372 49.1501 99 4 157
1945039S09074 1945 12 SI MM NOT_NAMED 1945-02-18 15:00:00 NR -27.1070 49.2235 main 313 313 _____P________ -1 -27.1070 49.2235 99 4 160
1945039S09074 1945 12 SI MM NOT_NAMED 1945-02-18 18:00:00 NR -27.2733 49.2875 main 336 336 _____P________ -1 -27.2733 49.2875 99 3 162
1945039S09074 1945 12 SI MM NOT_NAMED 1945-02-18 21:00:00 NR -27.4372 49.3453 main 344 344 _____P________ -1 -27.4372 49.3453 99 3 164
1945039S09074 1945 12 SI MM NOT_NAMED 1945-02-19 00:00:00 NR -27.6000 49.4000 reunion main 367 _____O________ -1 -27.6000 49.4000 99 9.90000 3 161

IBTrACS Databaseについて

本データベースは、米国NOAAが公開する1842年以降の世界の熱帯低気圧のベストトラックデータアーカイブInternational Best Track Archive for Climate Stewardship (IBTrACS)を、ウェブで閲覧しやすい形式に変換したものです。

最終更新日:2021-12-03